Time;durP1;ratioP1;P1;durP2;ratioP2;P2;SDS_P1;SDS_P2;PMS_P1;PMS_P2;Temp;Humidity;BMP_temperature;BMP_pressure;BME280_temperature;BME280_humidity;BME280_pressure;Samples;Min_cycle;Max_cycle;Signal;HPM_P1;HPM_P2
2022/04/21 00:01:35;;;;;;;3.97;2.08;;;12.60;77.80;;;12.54;53.43;100691.66;5187832;28;20058;-71
2022/04/21 00:04:07;;;;;;;3.65;2.00;;;12.50;78.00;;;12.48;53.72;100686.25;5187632;28;20071;-72
2022/04/21 00:06:39;;;;;;;4.55;1.80;;;12.50;78.40;;;12.48;53.47;100687.16;5187949;28;20050;-71
2022/04/21 00:09:11;;;;;;;4.13;2.30;;;12.50;78.70;;;12.48;53.68;100688.88;5187832;28;20046;-71
2022/04/21 00:11:43;;;;;;;3.80;2.10;;;12.50;78.60;;;12.46;53.52;100687.97;5186771;28;20050;-72
2022/04/21 00:14:15;;;;;;;5.45;2.00;;;12.50;78.60;;;12.50;53.39;100682.84;5187769;28;20493;-71
2022/04/21 00:16:48;;;;;;;3.33;1.98;;;12.40;78.90;;;12.55;53.51;100688.19;5187361;28;20517;-71
2022/04/21 00:19:20;;;;;;;3.22;2.10;;;12.40;79.50;;;12.55;53.76;100677.72;5187519;28;20054;-72
2022/04/21 00:24:42;;;;;;;5.28;2.10;;;12.40;81.00;;;12.46;54.85;100685.34;5187431;28;20053;-71
2022/04/21 00:27:14;;;;;;;5.65;2.45;;;12.30;82.60;;;12.37;55.74;100685.09;5187433;28;20045;-72
2022/04/21 00:29:46;;;;;;;3.05;1.80;;;12.20;84.00;;;12.28;56.69;100675.31;5186953;28;20052;-71
2022/04/21 00:32:19;;;;;;;3.53;2.15;;;12.10;85.70;;;12.20;56.74;100675.09;5186720;28;20041;-71
2022/04/21 00:34:51;;;;;;;4.57;2.45;;;12.10;86.60;;;12.14;56.77;100669.72;5187130;28;20060;-72
2022/04/21 00:37:23;;;;;;;3.10;2.10;;;12.00;87.20;;;12.09;57.20;100676.53;5187193;28;20058;-72
2022/04/21 00:39:55;;;;;;;4.10;2.13;;;11.90;88.10;;;12.04;57.69;100667.69;5187169;28;20564;-71
2022/04/21 00:42:27;;;;;;;3.22;1.88;;;11.80;89.30;;;11.98;57.89;100666.63;5186740;28;20058;-71
2022/04/21 00:44:59;;;;;;;2.33;2.10;;;11.80;90.10;;;11.92;58.18;100669.97;5186723;28;20056;-72
2022/04/21 00:47:33;;;;;;;4.40;2.08;;;11.80;90.70;;;11.87;58.70;100674.22;5186960;28;20551;-72
2022/04/21 00:50:06;;;;;;;4.80;2.63;;;11.70;91.30;;;11.80;58.95;100670.50;5186737;28;20052;-71
2022/04/21 00:52:39;;;;;;;3.42;2.22;;;11.60;91.80;;;11.75;59.06;100673.81;5186226;28;20046;-72
2022/04/21 00:55:13;;;;;;;3.72;2.17;;;11.60;92.10;;;11.65;59.86;100668.31;5185942;28;20050;-71
2022/04/21 00:57:47;;;;;;;5.65;2.45;;;11.50;92.80;;;11.56;60.23;100675.91;5186609;28;20136;-71
2022/04/21 01:00:20;;;;;;;3.67;2.22;;;11.40;93.50;;;11.49;61.00;100670.47;5186526;28;20056;-71
2022/04/21 01:02:53;;;;;;;3.38;2.22;;;11.40;94.20;;;11.40;61.40;100671.06;5186101;28;20156;-71
2022/04/21 01:05:29;;;;;;;4.35;2.38;;;11.30;94.80;;;11.31;61.87;100660.38;5186587;28;20054;-72
2022/04/21 01:08:03;;;;;;;6.05;2.42;;;11.20;95.50;;;11.24;62.11;100664.53;5186926;28;20503;-71
2022/04/21 01:10:38;;;;;;;3.75;2.35;;;11.10;95.90;;;11.16;62.50;100660.81;5185918;28;20049;-72
2022/04/21 01:13:12;;;;;;;3.10;2.60;;;11.10;96.50;;;11.10;62.65;100665.84;5185849;28;20056;-71
2022/04/21 01:15:44;;;;;;;5.43;2.85;;;11.00;96.80;;;11.01;63.06;100658.59;5186478;28;20487;-72
2022/04/21 01:18:28;;;;;;;3.92;2.47;;;10.90;97.40;;;10.96;63.47;100661.94;5186176;28;20053;-71
2022/04/21 01:21:01;;;;;;;3.83;2.72;;;10.80;97.80;;;10.91;63.82;100669.59;5186155;28;20153;-71
2022/04/21 01:23:33;;;;;;;4.35;2.63;;;10.80;98.30;;;10.85;64.15;100662.47;5185596;28;20046;-71
2022/04/21 01:26:05;;;;;;;4.95;2.53;;;10.70;98.60;;;10.81;64.54;100657.09;5185958;28;20053;-71
2022/04/21 01:28:37;;;;;;;3.88;2.78;;;10.70;99.00;;;10.79;64.82;100656.16;5186079;28;20137;-71
2022/04/21 01:31:09;;;;;;;5.15;2.47;;;10.70;99.30;;;10.73;64.77;100643.81;5186009;28;20056;-71
2022/04/21 01:33:41;;;;;;;4.80;2.45;;;10.60;99.40;;;10.70;65.02;100650.66;5185695;28;20045;-71
2022/04/21 01:36:15;;;;;;;6.65;3.08;;;10.60;99.60;;;10.66;64.92;100654.88;5185906;28;20112;-72
2022/04/21 01:41:36;;;;;;;3.65;2.33;;;10.50;99.40;;;10.64;64.77;100653.97;5185526;28;20060;-71
2022/04/21 01:44:08;;;;;;;5.45;2.97;;;10.50;99.50;;;10.57;64.66;100652.88;5186074;28;20050;-71
2022/04/21 01:46:41;;;;;;;3.70;2.42;;;10.50;99.50;;;10.49;64.99;100641.28;5185644;28;20320;-71
2022/04/21 01:49:13;;;;;;;4.88;2.80;;;10.40;99.80;;;10.44;65.53;100644.63;5185556;28;20168;-71
2022/04/21 01:51:46;;;;;;;4.05;2.65;;;10.40;99.90;;;10.37;65.90;100637.41;5184878;28;20076;-71
2022/04/21 01:54:18;;;;;;;7.85;3.00;;;10.30;99.90;;;10.32;66.17;100637.28;5185907;28;20505;-71
2022/04/21 01:56:50;;;;;;;3.33;2.42;;;10.20;99.90;;;10.27;66.42;100634.50;5185493;28;20502;-71
2022/04/21 01:59:22;;;;;;;3.90;2.63;;;10.20;99.90;;;10.22;66.69;100637.75;5185204;28;20421;-70
2022/04/21 02:01:54;;;;;;;3.38;2.38;;;10.10;99.90;;;10.18;66.99;100631.56;5185140;28;20414;-71
2022/04/21 02:04:26;;;;;;;5.53;2.60;;;10.10;99.90;;;10.13;67.13;100642.66;5185088;28;20054;-71
2022/04/21 02:07:00;;;;;;;4.25;2.60;;;10.10;99.90;;;10.07;67.60;100632.91;5185533;28;20052;-71
2022/04/21 02:09:32;;;;;;;4.97;2.47;;;10.00;99.90;;;10.02;67.64;100630.16;5185393;28;20060;-71
2022/04/21 02:12:06;;;;;;;5.18;2.63;;;10.00;99.90;;;9.99;68.00;100623.97;5184578;28;20083;-71
2022/04/21 02:14:38;;;;;;;3.70;2.33;;;9.90;99.90;;;9.95;68.31;100620.34;5185233;28;20054;-72
2022/04/21 02:17:10;;;;;;;3.75;2.60;;;9.90;99.90;;;9.92;68.42;100624.59;5185396;28;20060;-71
2022/04/21 02:19:42;;;;;;;4.90;2.55;;;9.80;99.90;;;9.87;69.01;100623.53;5185113;28;20549;-70
2022/04/21 02:22:16;;;;;;;4.40;2.47;;;9.80;99.90;;;9.80;69.01;100617.22;5184811;28;20451;-71
2022/04/21 02:24:48;;;;;;;6.22;2.88;;;9.80;99.90;;;9.77;68.71;100619.72;5185526;28;20173;-71
2022/04/21 02:27:20;;;;;;;5.07;2.50;;;9.70;99.90;;;9.72;69.02;100618.69;5184854;28;20049;-72
2022/04/21 02:29:52;;;;;;;4.60;2.72;;;9.60;99.90;;;9.67;69.27;100609.81;5184703;28;20050;-71
2022/04/21 02:32:24;;;;;;;4.07;2.92;;;9.60;99.90;;;9.65;69.63;100614.06;5184575;28;20141;-71
2022/04/21 02:34:57;;;;;;;3.45;2.30;;;9.60;99.90;;;9.61;69.86;100614.81;5184912;28;20525;-71
2022/04/21 02:37:35;;;;;;;5.38;2.95;;;9.60;99.90;;;9.58;69.69;100614.69;5184854;28;20054;-70
2022/04/21 02:40:10;;;;;;;3.50;2.30;;;9.50;99.90;;;9.55;70.01;100617.19;5184784;28;20479;-70
2022/04/21 02:42:42;;;;;;;4.20;2.67;;;9.50;99.90;;;9.50;70.29;100607.50;5184201;28;20554;-71
2022/04/21 02:45:15;;;;;;;5.05;2.50;;;9.40;99.90;;;9.48;70.51;100614.34;5184538;28;20145;-71
2022/04/21 02:47:47;;;;;;;5.78;2.83;;;9.40;99.90;;;9.44;70.54;100601.19;5184806;28;20084;-70
2022/04/21 02:50:21;;;;;;;5.60;2.97;;;9.40;99.90;;;9.40;70.92;100610.59;5184386;28;20092;-71
2022/04/21 02:52:55;;;;;;;4.63;2.88;;;9.40;99.90;;;9.38;71.25;100611.34;5184502;28;20056;-70
2022/04/21 02:58:19;;;;;;;6.30;3.10;;;9.30;99.90;;;9.29;71.36;100611.91;5184583;28;20061;-71
2022/04/21 03:00:52;;;;;;;4.15;2.78;;;9.20;99.90;;;9.26;71.46;100609.22;5184586;28;20046;-70
2022/04/21 03:03:24;;;;;;;4.65;2.42;;;9.20;99.90;;;9.25;71.71;100615.22;5184178;28;20085;-71
2022/04/21 03:05:56;;;;;;;3.92;2.85;;;9.20;99.90;;;9.22;71.68;100612.53;5184661;28;20050;-71
2022/04/21 03:08:29;;;;;;;5.57;3.15;;;9.20;99.90;;;9.19;72.08;100620.19;5184358;28;20049;-71
2022/04/21 03:11:01;;;;;;;5.30;2.97;;;9.10;99.90;;;9.16;72.15;100614.91;5184105;28;20054;-71
2022/04/21 03:13:33;;;;;;;6.30;3.05;;;9.10;99.90;;;9.14;72.19;100619.16;5184169;28;20046;-70
2022/04/21 03:16:06;;;;;;;5.20;3.10;;;9.10;99.90;;;9.13;72.38;100625.19;5184074;28;20050;-71
2022/04/21 03:18:38;;;;;;;4.75;3.20;;;9.10;99.90;;;9.12;72.70;100623.41;5186479;28;20410;-70
2022/04/21 03:26:52;;;;;;;4.97;2.55;;;9.00;99.90;;;9.03;72.78;100617.84;5188581;28;20054;-72
2022/04/21 03:29:24;;;;;;;5.97;3.10;;;8.90;99.90;;;9.03;72.87;100617.84;5188689;28;20483;-70
2022/04/21 03:31:56;;;;;;;3.97;2.40;;;8.90;99.90;;;9.03;72.37;100613.53;5187416;28;20057;-71
2022/04/21 03:34:28;;;;;;;4.53;2.72;;;8.90;99.90;;;9.00;72.46;100613.44;5187964;28;20141;-71
2022/04/21 03:37:00;;;;;;;3.70;2.47;;;8.90;99.90;;;9.00;72.25;100612.53;5188259;28;20045;-72
2022/04/21 03:39:33;;;;;;;7.07;3.80;;;9.00;99.90;;;9.01;72.15;100620.41;5188354;28;20418;-71
2022/04/21 03:42:07;;;;;;;5.20;2.40;;;8.90;99.90;;;9.00;72.26;100617.72;5187365;28;20068;-71
2022/04/21 03:44:41;;;;;;;5.60;2.88;;;8.90;99.90;;;8.96;72.67;100622.81;5188155;28;20062;-71
2022/04/21 03:47:13;;;;;;;4.03;2.65;;;8.90;99.90;;;8.92;72.68;100626.13;5188195;28;20424;-71
2022/04/21 03:49:45;;;;;;;4.15;2.30;;;8.90;99.90;;;8.89;72.64;100619.94;5203173;23;20050;31
2022/04/21 03:52:18;;;;;;;4.10;2.55;;;8.90;99.90;;;8.87;72.99;100625.09;5174412;28;20060;-75
2022/04/21 03:54:51;;;;;;;4.85;2.63;;;8.80;99.90;;;8.84;72.90;100624.94;5187609;28;20486;-75
2022/04/21 03:57:25;;;;;;;8.60;2.90;;;8.80;99.90;;;8.81;72.85;100623.97;5187661;28;20190;-75
2022/04/21 03:59:57;;;;;;;4.97;2.72;;;8.80;99.90;;;8.75;72.75;100624.59;5184818;28;20049;-75
2022/04/21 04:02:29;;;;;;;6.53;3.13;;;8.70;99.90;;;8.72;73.30;100621.84;5166537;28;20050;-75
2022/04/21 04:05:02;;;;;;;5.18;3.17;;;8.70;99.90;;;8.67;73.01;100620.78;5167632;28;20521;-76
2022/04/21 04:13:24;;;;;;;3.88;2.47;;;8.60;99.90;;;8.54;73.64;100618.53;5166870;28;20053;-75
2022/04/21 04:15:57;;;;;;;6.47;2.75;;;8.60;99.90;;;8.51;73.85;100621.91;5167926;28;20579;-75
2022/04/21 04:18:29;;;;;;;5.03;2.67;;;8.50;99.90;;;8.47;74.25;100624.31;5167521;28;20137;-75
2022/04/21 04:21:01;;;;;;;5.18;3.08;;;8.50;99.90;;;8.44;74.50;100625.06;5166817;28;20121;-75
2022/04/21 04:23:33;;;;;;;4.63;2.75;;;8.40;99.90;;;8.39;74.13;100624.88;5166278;28;20081;-75
2022/04/21 04:26:06;;;;;;;7.35;3.05;;;8.40;99.90;;;8.38;74.84;100620.50;5167104;28;20391;-75
2022/04/21 04:28:38;;;;;;;4.35;2.80;;;8.40;99.90;;;8.35;74.53;100620.41;5166301;28;20076;-75
2022/04/21 04:31:10;;;;;;;4.82;3.22;;;8.40;99.90;;;8.34;75.01;100623.75;5166747;28;20050;-76
2022/04/21 04:33:42;;;;;;;5.22;3.20;;;8.40;99.90;;;8.31;75.20;100618.47;5166404;28;20415;-75
2022/04/21 04:36:16;;;;;;;6.18;3.05;;;8.30;99.90;;;8.31;74.99;100623.66;5166145;28;20523;-76
2022/04/21 04:38:48;;;;;;;5.65;2.95;;;8.30;99.90;;;8.29;75.09;100617.53;5166688;28;20058;-75
2022/04/21 04:44:11;;;;;;;4.30;2.70;;;8.30;99.90;;;8.29;74.81;100624.44;5163575;28;20594;-75
2022/04/21 04:46:43;;;;;;;4.15;2.85;;;8.30;99.90;;;8.29;75.10;100632.22;5166489;28;20091;-74
2022/04/21 04:49:15;;;;;;;5.82;2.83;;;8.30;99.90;;;8.29;74.62;100624.44;5165960;28;20092;-75
2022/04/21 04:51:47;;;;;;;6.60;3.20;;;8.30;99.90;;;8.30;74.68;100636.59;5164946;28;20057;-76
2022/04/21 04:54:19;;;;;;;4.82;2.55;;;8.30;99.90;;;8.29;74.51;100627.91;5166349;28;20082;-75
2022/04/21 04:56:52;;;;;;;3.65;2.72;;;8.30;99.90;;;8.30;74.74;100637.47;5165468;28;20582;-75
2022/04/21 04:59:25;;;;;;;6.00;3.03;;;8.30;99.90;;;8.32;74.55;100634.94;5165863;28;20046;-75
2022/04/21 05:01:57;;;;;;;6.13;3.20;;;8.30;99.90;;;8.33;75.07;100637.56;5164384;28;20427;-75
2022/04/21 05:04:29;;;;;;;4.82;3.05;;;8.30;99.90;;;8.39;75.30;100636.97;5162562;28;20333;-74
2022/04/21 05:07:01;;;;;;;6.28;2.92;;;8.30;99.90;;;8.43;74.57;100639.78;5164786;28;20399;-76
2022/04/21 05:09:33;;;;;;;5.00;2.65;;;8.40;99.90;;;8.50;74.38;100640.03;5165767;28;20046;-75
2022/04/21 05:12:08;;;;;;;5.13;3.28;;;8.40;99.90;;;8.55;74.64;100638.50;5164628;28;20403;-75
2022/04/21 05:14:40;;;;;;;5.88;3.35;;;8.50;99.90;;;8.58;74.37;100639.50;5165023;28;20105;-75
2022/04/21 05:17:12;;;;;;;5.07;2.97;;;8.50;99.90;;;8.63;74.37;100637.09;5165104;28;20129;-75
2022/04/21 05:19:45;;;;;;;5.38;3.08;;;8.60;99.90;;;8.68;73.76;100630.38;5164691;28;20058;-75
2022/04/21 05:22:18;;;;;;;5.85;3.47;;;8.60;99.90;;;8.74;73.40;100628.03;5164337;28;20412;-75
2022/04/21 05:24:54;;;;;;;7.68;3.10;;;8.70;99.90;;;8.85;73.54;100631.91;5164699;28;20517;-76
2022/04/21 05:27:28;;;;;;;7.10;3.63;;;8.80;99.90;;;9.07;73.26;100625.84;5165739;28;20050;-76
2022/04/21 05:32:53;;;;;;;7.05;3.47;;;9.20;99.90;;;10.66;70.80;100620.13;5166429;28;20089;-69
2022/04/21 05:35:26;;;;;;;4.20;3.10;;;9.90;99.90;;;11.59;66.87;100615.94;5167212;28;20525;-71
2022/04/21 05:37:59;;;;;;;5.65;3.22;;;10.60;99.90;;;12.48;62.83;100621.78;5166351;28;20050;-73
2022/04/21 05:40:32;;;;;;;4.15;3.00;;;11.30;99.90;;;13.25;58.98;100606.13;5166068;28;20047;-73
2022/04/21 05:43:12;;;;;;;5.15;3.47;;;12.10;99.60;;;14.01;54.95;100608.44;5166908;28;20048;-72
2022/04/21 05:45:45;;;;;;;7.68;3.33;;;12.80;96.90;;;14.63;52.33;100603.41;5167633;28;20402;-70
2022/04/21 05:48:17;;;;;;;5.40;2.65;;;13.50;94.00;;;15.05;50.43;100610.13;5166959;28;20461;-72
2022/04/21 05:50:53;;;;;;;5.60;2.85;;;14.00;91.70;;;15.45;49.46;100609.81;5165555;28;20627;-73
2022/04/21 05:53:27;;;;;;;5.43;3.22;;;14.50;90.10;;;15.83;48.33;100614.63;5163264;28;20051;-72
2022/04/21 05:56:00;;;;;;;3.75;2.70;;;14.90;86.30;;;16.12;47.26;100620.19;5157734;28;20050;-72
2022/04/21 05:58:33;;;;;;;5.53;2.58;;;15.20;82.90;;;16.31;46.27;100607.22;5145829;28;20054;-71
2022/04/21 06:01:08;;;;;;;6.13;2.80;;;15.50;80.30;;;16.40;45.79;100609.91;5144979;28;20488;-73
2022/04/21 06:03:41;;;;;;;;;;;15.70;78.20;;;16.55;45.52;100610.88;5144221;28;20389;-70
2022/04/21 06:06:13;;;;;;;6.30;2.42;;;15.90;76.90;;;16.77;45.26;100616.34;5144957;28;19944;-71
2022/04/21 06:08:45;;;;;;;5.82;2.70;;;16.00;76.60;;;16.92;44.58;100611.19;5147620;28;20047;-71
2022/04/21 06:11:17;;;;;;;6.38;3.03;;;16.20;75.00;;;17.08;44.31;100610.41;5145723;28;20057;-74
2022/04/21 06:13:51;;;;;;;6.35;2.83;;;16.30;74.90;;;17.21;44.29;100608.69;5146210;28;20054;-70
2022/04/21 06:16:24;;;;;;;5.15;2.47;;;16.40;73.90;;;17.43;43.86;100608.81;5145932;28;20090;-73
2022/04/21 06:18:56;;;;;;;5.13;3.15;;;16.60;73.10;;;17.61;42.92;100615.03;5146788;28;20051;-74
2022/04/21 06:21:27;;;;;;;5.97;2.78;;;16.80;71.40;;;17.76;42.20;100608.94;5146146;28;20057;-72
2022/04/21 06:23:59;;;;;;;5.50;2.45;;;16.90;70.10;;;17.86;41.70;100604.56;5145481;28;20050;-73
2022/04/21 06:26:31;;;;;;;4.93;2.92;;;17.00;68.80;;;18.11;41.29;100610.75;5147325;28;20062;-69
2022/04/21 06:29:05;;;;;;;3.80;2.72;;;17.20;68.40;;;18.27;41.17;100607.25;5145070;28;20051;-71
2022/04/21 06:31:38;;;;;;;6.05;3.20;;;17.40;68.00;;;18.49;40.63;100607.25;5144488;28;20484;-61
2022/04/21 06:34:10;;;;;;;7.22;2.88;;;17.60;67.10;;;18.70;40.40;100605.50;5144569;28;20419;-65
2022/04/21 06:36:42;;;;;;;6.07;2.85;;;17.90;66.30;;;18.96;39.91;100599.28;5144327;28;20046;-64
2022/04/21 06:39:14;;;;;;;5.78;2.85;;;18.10;65.30;;;19.17;39.34;100593.97;5144459;28;20055;-62
2022/04/21 06:41:46;;;;;;;4.05;2.58;;;18.40;64.40;;;19.36;38.59;100600.03;5143694;28;20233;-62
2022/04/21 06:50:04;;;;;;;3.75;2.28;;;18.90;60.30;;;19.75;36.76;100617.50;5143983;28;20077;-60
2022/04/21 06:52:37;;;;;;;4.88;2.20;;;19.10;60.20;;;19.89;35.92;100605.97;5143265;28;20141;-60
2022/04/21 06:55:09;;;;;;;3.78;2.13;;;19.20;58.30;;;20.13;35.68;100610.22;5144113;28;20350;-59
2022/04/21 06:57:41;;;;;;;4.30;2.28;;;19.40;58.30;;;20.42;35.04;100607.34;5144189;28;20057;-63
2022/04/21 07:00:16;;;;;;;3.53;2.17;;;19.60;57.40;;;20.53;34.47;100600.22;5144027;28;20066;-65
2022/04/21 07:02:48;;;;;;;8.75;2.70;;;19.80;56.40;;;20.76;34.17;100606.19;5143834;28;20069;-62
2022/04/21 07:05:20;;;;;;;6.40;2.30;;;20.00;55.80;;;20.94;33.96;100607.75;5144097;28;20142;-66
2022/04/21 07:07:52;;;;;;;4.22;2.38;;;20.20;55.50;;;20.96;33.65;100605.09;5143809;28;20551;-66
2022/04/21 07:10:24;;;;;;;3.22;1.85;;;20.20;55.10;;;21.06;33.74;100602.34;5143666;28;20057;-62
2022/04/21 07:12:56;;;;;;;3.10;2.33;;;20.30;55.10;;;21.14;33.49;100607.53;5143697;28;20057;-62
2022/04/21 07:15:30;;;;;;;4.30;2.22;;;20.40;54.90;;;21.35;32.98;100603.78;5144301;28;20426;-63
2022/04/21 07:18:02;;;;;;;3.63;2.08;;;20.60;54.30;;;21.52;32.59;100603.59;5143710;28;20478;-62
2022/04/21 07:20:34;;;;;;;4.88;2.22;;;20.70;53.60;;;21.60;32.71;100605.22;5143913;28;20057;-62
2022/04/21 07:23:07;;;;;;;3.90;2.25;;;20.80;53.80;;;21.60;32.80;100596.41;5143698;28;20719;-61
2022/04/21 07:25:39;;;;;;;3.60;2.22;;;20.80;53.60;;;21.69;33.27;100596.25;5143954;28;20059;-62
2022/04/21 07:28:11;;;;;;;3.92;2.08;;;20.90;54.30;;;21.76;33.22;100594.41;5143788;28;20058;-61
2022/04/21 07:30:46;;;;;;;4.57;2.13;;;20.90;54.20;;;21.71;33.26;100591.81;5143687;28;20047;-61
2022/04/21 07:33:19;;;;;;;4.93;2.42;;;20.80;54.80;;;21.77;33.31;100591.72;5143659;28;20043;-62
2022/04/21 07:35:51;;;;;;;5.22;2.38;;;20.90;54.30;;;22.00;33.06;100590.50;5144165;28;20121;-62
2022/04/21 07:38:23;;;;;;;5.38;2.28;;;21.00;54.20;;;22.18;33.45;100587.63;5144042;28;20146;-62
2022/04/21 07:40:54;;;;;;;3.95;2.05;;;21.20;54.60;;;22.27;32.81;100587.44;5143818;28;20050;-61
2022/04/21 07:43:26;;;;;;;3.50;2.13;;;21.30;53.80;;;22.26;32.64;100585.69;5143196;28;20056;-61
2022/04/21 07:46:00;;;;;;;4.72;2.20;;;21.30;53.50;;;22.30;32.14;100584.75;5144006;28;20496;-63
2022/04/21 07:51:18;;;;;;;4.15;2.03;;;21.40;53.70;;;22.67;31.72;100586.75;5143292;28;20051;-66
2022/04/21 07:53:49;;;;;;;5.45;2.40;;;21.50;52.80;;;22.98;31.07;100587.97;5143524;28;20080;-62
2022/04/21 07:56:21;;;;;;;4.13;2.17;;;21.70;52.10;;;23.14;31.11;100582.34;5143857;28;20051;-61
2022/04/21 07:58:53;;;;;;;4.18;2.22;;;21.80;52.30;;;23.25;30.62;100591.00;5143700;28;20050;-63
2022/04/21 08:01:26;;;;;;;4.35;1.92;;;21.90;51.70;;;23.59;30.27;100587.59;5143418;28;20125;-64
2022/04/21 08:04:02;;;;;;;4.80;2.20;;;22.00;51.60;;;23.71;29.64;100587.38;5144161;28;20484;-62
2022/04/21 08:06:34;;;;;;;5.38;2.33;;;22.20;50.60;;;24.12;29.33;100585.53;5147651;28;20484;-62
2022/04/21 08:09:06;;;;;;;4.78;2.13;;;22.40;50.70;;;24.58;28.23;100586.16;5147466;28;20506;-64
2022/04/21 08:11:38;;;;;;;3.42;1.60;;;22.60;49.60;;;24.33;28.35;100582.34;5146865;28;20093;-63
2022/04/21 08:14:10;;;;;;;3.88;2.08;;;22.60;49.00;;;24.42;27.79;100594.59;5147077;28;20051;-62
2022/04/21 08:16:44;;;;;;;3.58;1.52;;;22.60;48.30;;;24.70;27.51;100584.94;5147140;28;20415;-62
2022/04/21 08:19:16;;;;;;;3.33;1.70;;;22.70;48.40;;;25.49;27.17;100592.53;5147041;28;20047;-63
2022/04/21 08:21:48;;;;;;;2.72;1.98;;;22.90;48.80;;;26.36;26.14;100584.47;5146647;28;20050;-63
2022/04/21 08:32:50;;;;;;;2.92;1.83;;;23.70;45.40;;;26.47;23.89;100584.09;5146238;28;20082;-70
2022/04/21 08:35:23;;;;;;;2.40;1.67;;;23.50;44.80;;;27.76;22.99;100581.19;5146767;28;20484;-70
2022/04/21 08:37:55;;;;;;;2.75;1.63;;;23.90;45.40;;;28.26;21.90;100577.38;5146490;28;20050;-71
2022/04/21 08:40:28;;;;;;;2.80;1.77;;;24.40;44.20;;;28.36;21.94;100576.97;5146737;28;20057;-71
2022/04/21 08:43:03;;;;;;;2.13;1.42;;;24.60;44.00;;;29.31;20.79;100579.97;5146283;28;20507;-76
2022/04/21 08:45:35;;;;;;;3.17;1.30;;;25.20;43.10;;;29.90;19.88;100584.34;5147186;28;20055;-71
2022/04/21 08:48:11;;;;;;;1.73;1.20;;;25.80;41.90;;;30.15;18.64;100581.34;5146572;28;20047;-71
2022/04/21 08:50:43;;;;;;;1.77;1.02;;;26.20;39.80;;;30.10;17.68;100578.03;5146824;28;20143;-73
2022/04/21 08:53:17;;;;;;;2.80;0.90;;;26.40;38.50;;;30.21;17.44;100579.22;5146201;28;20058;-74
2022/04/21 08:55:49;;;;;;;2.47;1.10;;;26.50;38.00;;;30.26;17.47;100566.44;5146435;28;20152;-75
2022/04/21 08:58:22;;;;;;;1.30;0.90;;;26.60;38.00;;;30.49;17.20;100567.94;5146032;28;20046;-75
2022/04/21 09:00:56;;;;;;;2.25;0.98;;;26.80;37.90;;;29.87;17.27;100574.63;5146381;28;20416;-75
2022/04/21 09:03:33;;;;;;;1.75;0.90;;;26.60;36.60;;;29.91;17.09;100557.41;5145858;28;20485;-75
2022/04/21 09:06:05;;;;;;;1.65;0.80;;;26.70;36.80;;;29.95;16.76;100561.69;5146434;28;20062;-74
2022/04/21 09:08:37;;;;;;;1.20;0.88;;;26.70;36.60;;;29.40;17.25;100555.34;5145766;28;20085;-74
2022/04/21 09:11:12;;;;;;;1.08;0.98;;;26.60;36.40;;;28.51;17.66;100554.00;5146440;28;20051;-74
2022/04/21 09:13:45;;;;;;;3.88;1.10;;;26.20;36.40;;;27.83;18.50;100549.66;5145874;28;20079;-75
2022/04/21 09:16:20;;;;;;;1.42;1.00;;;25.80;37.10;;;27.75;18.76;100536.59;5145251;28;20061;-74
2022/04/21 09:19:03;;;;;;;1.35;0.90;;;25.70;37.10;;;27.53;19.39;100538.34;5145786;28;20109;-75
2022/04/21 09:21:38;;;;;;;1.83;1.25;;;25.70;37.70;;;27.02;19.71;100531.34;5145481;28;20054;-74
2022/04/21 09:24:22;;;;;;;1.30;1.20;;;25.50;37.90;;;26.41;20.30;100525.56;5145817;28;20519;-74
2022/04/21 09:26:57;;;;;;;1.73;0.90;;;25.20;37.90;;;25.66;20.97;100526.16;5145741;28;20437;-74
2022/04/21 09:29:31;;;;;;;4.13;1.10;;;24.80;38.40;;;24.80;21.63;100521.63;5145900;28;20149;-65
2022/04/21 09:32:05;;;;;;;1.15;0.85;;;24.30;38.70;;;24.58;22.41;100516.91;5145609;28;20506;-66
2022/04/21 09:34:39;;;;;;;1.67;0.93;;;24.00;39.50;;;24.46;22.50;100506.56;5145995;28;20420;-67
2022/04/21 09:37:13;;;;;;;1.80;1.20;;;23.80;39.70;;;24.37;23.13;100509.44;5145955;28;20461;-66
2022/04/21 09:39:51;;;;;;;2.10;0.90;;;23.70;40.10;;;24.07;22.90;100503.13;5145547;28;20542;-72
2022/04/21 09:42:25;;;;;;;1.55;1.05;;;23.50;39.70;;;23.69;23.25;100506.72;5145651;28;20047;-72
2022/04/21 09:47:55;;;;;;;1.40;1.10;;;22.90;39.60;;;23.18;23.77;100509.59;5145295;28;20553;-72
2022/04/21 09:50:33;;;;;;;2.05;1.08;;;22.70;40.50;;;22.86;24.28;100511.13;5377695;23;20017;-71
2022/04/21 09:53:05;;;;;;;1.77;1.10;;;22.40;41.10;;;22.82;24.54;100501.47;5150573;28;20526;-73
2022/04/21 09:55:37;;;;;;;2.75;1.20;;;22.30;41.70;;;22.64;24.77;100493.84;5165195;28;20141;-72
2022/04/21 09:58:10;;;;;;;1.38;1.17;;;22.10;41.70;;;22.46;24.69;100495.06;5165806;28;20137;-71
2022/04/21 10:00:43;;;;;;;2.90;1.20;;;21.90;41.60;;;22.16;25.14;100485.88;5166043;28;20066;-71
2022/04/21 10:03:15;;;;;;;1.58;1.00;;;21.70;41.90;;;22.04;25.43;100478.06;5166030;28;20137;-70
2022/04/21 10:05:49;;;;;;;2.40;1.23;;;21.50;42.40;;;22.08;25.67;100474.47;5166731;28;20065;-72
2022/04/21 10:08:21;;;;;;;1.17;0.90;;;21.50;42.90;;;22.13;26.19;100472.66;5166262;28;20050;-70
2022/04/21 10:10:57;;;;;;;2.17;0.98;;;21.40;43.60;;;22.15;26.18;100474.38;5165969;28;20483;-68
2022/04/21 10:13:31;;;;;;;3.92;1.33;;;21.40;43.70;;;22.23;26.60;100465.41;5165524;28;20042;-64
2022/04/21 10:16:04;;;;;;;2.00;1.20;;;21.40;44.10;;;22.22;26.52;100469.84;5165471;28;20061;-64
2022/04/21 10:18:36;;;;;;;3.40;1.40;;;21.50;44.20;;;22.10;26.33;100472.69;5165087;28;20050;-66
2022/04/21 10:21:10;;;;;;;2.33;1.30;;;21.40;43.50;;;22.02;26.21;100458.66;5165228;28;20137;-68
2022/04/21 10:23:44;;;;;;;3.05;1.17;;;21.40;43.40;;;21.97;26.18;100460.50;5165545;28;20050;-67
2022/04/21 10:26:37;;;;;;;1.83;1.30;;;21.30;43.30;;;21.81;26.50;100452.81;5165635;28;20137;-66
2022/04/21 10:29:14;;;;;;;1.30;1.20;;;21.20;43.70;;;21.63;26.59;100455.78;5165411;28;20042;-66
2022/04/21 10:31:51;;;;;;;2.28;1.10;;;21.10;43.50;;;21.56;26.91;100456.78;5165406;28;20046;-66
2022/04/21 10:34:36;;;;;;;4.10;1.33;;;21.00;43.90;;;21.50;27.25;100446.25;5165316;28;20042;-68
2022/04/21 10:37:12;;;;;;;1.25;1.02;;;21.00;44.40;;;21.61;28.04;100446.97;5165174;28;20050;-66
2022/04/21 10:40:10;;;;;;;2.25;1.30;;;21.00;45.30;;;21.63;27.73;100440.72;5165317;28;20046;-65
2022/04/21 10:42:59;;;;;;;2.15;1.70;;;21.00;45.10;;;21.60;28.04;100437.28;5155241;28;20050;-67
2022/04/21 10:45:33;;;;;;;4.68;2.13;;;21.00;45.50;;;21.50;27.77;100423.25;5165472;28;20054;-69
2022/04/21 10:48:06;;;;;;;2.55;1.75;;;21.00;44.90;;;21.49;28.33;100431.25;5165372;28;20052;-66
2022/04/21 10:50:40;;;;;;;1.65;1.15;;;20.90;45.40;;;21.58;28.59;100425.78;5165259;28;20049;-67
2022/04/21 10:59:12;;;;;;;5.93;2.35;;;21.00;45.40;;;21.28;28.25;100411.22;5165014;28;20060;-66
2022/04/21 11:01:54;;;;;;;5.18;2.15;;;20.80;45.40;;;20.99;28.95;100422.22;5165039;28;20053;-67
2022/04/21 11:04:26;;;;;;;7.88;2.80;;;20.60;46.00;;;21.01;29.34;100408.06;5165339;28;20398;-63
2022/04/21 11:07:11;;;;;;;2.53;1.50;;;20.60;46.50;;;21.13;29.74;100402.59;5164566;28;20046;-63
2022/04/21 11:09:50;;;;;;;1.67;1.33;;;20.60;47.00;;;20.89;29.47;100407.38;5164448;28;20061;-64
2022/04/21 11:12:45;;;;;;;2.00;1.70;;;20.50;46.60;;;20.88;29.63;100403.84;5164484;28;20136;-64
2022/04/21 11:15:37;;;;;;;2.03;1.52;;;20.40;46.80;;;20.75;29.16;100403.13;5164925;28;20137;-63
2022/04/21 11:18:11;;;;;;;2.42;1.42;;;20.40;46.50;;;20.52;29.85;100398.09;5164732;28;20137;-62
2022/04/21 11:20:46;;;;;;;2.05;1.25;;;20.20;46.80;;;20.38;30.17;100394.72;5164453;28;20141;-63
2022/04/21 11:23:25;;;;;;;2.38;1.45;;;20.10;47.10;;;20.04;30.17;100399.50;5164721;28;20126;-62
2022/04/21 11:26:05;;;;;;;2.45;1.42;;;19.90;46.80;;;19.84;30.63;100394.41;5164634;28;20050;-62
2022/04/21 11:28:43;;;;;;;2.15;1.40;;;19.70;47.40;;;19.74;31.06;100390.97;5164895;28;20064;-62
2022/04/21 11:31:15;;;;;;;10.00;1.75;;;19.60;47.90;;;19.83;30.90;100397.09;5164261;28;20141;-65
2022/04/21 11:33:48;;;;;;;4.38;1.65;;;19.60;47.90;;;19.78;30.98;100397.13;5163969;28;20043;-63
2022/04/21 11:36:20;;;;;;;3.45;1.40;;;19.50;48.10;;;19.81;31.10;100385.63;5164845;28;20426;-67